Time;durP1;ratioP1;P1;durP2;ratioP2;P2;SDS_P1;SDS_P2;PMS_P1;PMS_P2;Temp;Humidity;BMP_temperature;BMP_pressure;BME280_temperature;BME280_humidity;BME280_pressure;Samples;Min_cycle;Max_cycle;Signal;HPM_P1;HPM_P2
2022/03/04 00:01:56;;;;;;;12.10;8.32;;;1.40;99.90;;;;;;4997945;28;20057;-81
2022/03/04 00:04:22;;;;;;;14.00;8.35;;;1.30;99.90;;;;;;4991315;28;20053;-81
2022/03/04 00:06:48;;;;;;;13.45;8.40;;;1.30;99.90;;;;;;4998019;28;20041;-81
2022/03/04 00:09:15;;;;;;;15.40;9.35;;;1.50;99.90;;;;;;4997131;28;20046;-81
2022/03/04 00:11:41;;;;;;;12.65;8.45;;;1.30;99.90;;;;;;4987420;28;20046;-81
2022/03/04 00:14:06;;;;;;;14.68;9.35;;;1.30;99.90;;;;;;4982455;28;20473;-81
2022/03/04 00:16:32;;;;;;;15.60;9.50;;;1.30;99.90;;;;;;4998825;28;20064;-80
2022/03/04 00:19:08;;;;;;;19.20;10.45;;;1.30;99.90;;;;;;4998624;28;20137;-81
2022/03/04 00:21:35;;;;;;;13.98;8.70;;;1.30;99.90;;;;;;4975310;28;20347;-81
2022/03/04 00:24:01;;;;;;;16.38;9.40;;;1.30;99.90;;;;;;4995924;28;20050;-81
2022/03/04 00:26:27;;;;;;;16.60;9.77;;;1.20;99.90;;;;;;5005856;28;20056;-81
2022/03/04 00:28:52;;;;;;;16.25;10.13;;;1.30;99.90;;;;;;4995794;28;20045;-81
2022/03/04 00:31:18;;;;;;;15.57;10.45;;;1.30;99.90;;;;;;4992713;28;20049;-81
2022/03/04 00:33:43;;;;;;;18.13;10.27;;;1.20;99.90;;;;;;4998917;28;20409;-80
2022/03/04 00:36:09;;;;;;;18.42;10.30;;;1.10;99.90;;;;;;4999150;28;20038;-81
2022/03/04 00:38:34;;;;;;;16.75;10.65;;;1.20;99.90;;;;;;4999795;28;20050;-81
2022/03/04 00:41:00;;;;;;;16.30;10.38;;;1.20;99.90;;;;;;4998378;28;20073;-81
2022/03/04 00:43:26;;;;;;;16.92;9.80;;;1.20;99.90;;;;;;4997240;28;20049;-82
2022/03/04 00:45:51;;;;;;;15.73;9.93;;;1.10;99.90;;;;;;4993162;28;20152;-82
2022/03/04 00:48:17;;;;;;;14.73;9.30;;;0.90;99.90;;;;;;4999774;28;20058;-81
2022/03/04 00:50:43;;;;;;;17.17;10.43;;;1.10;99.90;;;;;;4991736;28;20260;-82
2022/03/04 00:53:09;;;;;;;16.98;10.55;;;1.10;99.90;;;;;;4982857;28;20517;-80
2022/03/04 00:55:38;;;;;;;18.50;10.00;;;1.00;99.90;;;;;;4983447;28;20544;-81
2022/03/04 00:58:06;;;;;;;18.08;10.38;;;3.40;99.90;;;;;;4982072;28;20822;-81
2022/03/04 01:00:33;;;;;;;18.25;11.50;;;3.00;99.90;;;;;;4975150;28;20033;-81
2022/03/04 01:03:00;;;;;;;16.52;10.95;;;0.90;99.90;;;;;;4978043;28;20054;-80
2022/03/04 01:05:25;;;;;;;17.02;10.80;;;0.90;99.90;;;;;;4983013;28;20146;-81
2022/03/04 01:07:51;;;;;;;20.83;10.43;;;1.00;99.90;;;;;;4982293;28;20049;-81
2022/03/04 01:10:18;;;;;;;16.33;10.25;;;0.60;99.90;;;;;;4981342;28;20191;-81
2022/03/04 01:12:45;;;;;;;19.77;11.10;;;0.70;99.90;;;;;;4994556;28;20508;-80
2022/03/04 01:15:12;;;;;;;18.50;10.52;;;0.90;99.90;;;;;;5003091;28;20486;-81
2022/03/04 01:17:37;;;;;;;18.15;10.82;;;0.90;99.90;;;;;;4981177;28;20062;-81
2022/03/04 01:20:05;;;;;;;15.88;10.10;;;1.00;99.90;;;;;;4983713;28;20050;-80
2022/03/04 01:22:31;;;;;;;17.85;10.27;;;1.00;99.90;;;;;;4986410;28;20405;-80
2022/03/04 01:24:56;;;;;;;21.38;11.23;;;1.00;99.90;;;;;;5001815;28;20054;-79
2022/03/04 01:27:23;;;;;;;16.15;9.73;;;1.00;99.90;;;;;;4986773;28;20053;-80
2022/03/04 01:29:49;;;;;;;14.77;9.63;;;0.90;99.90;;;;;;5004101;28;20191;-80
2022/03/04 01:32:15;;;;;;;19.25;10.20;;;1.80;99.90;;;;;;5000749;28;20445;-81
2022/03/04 01:34:42;;;;;;;20.58;11.25;;;0.90;99.90;;;;;;5012270;28;20084;-81
2022/03/04 01:37:08;;;;;;;18.88;10.45;;;0.50;99.90;;;;;;5002738;28;20136;-81
2022/03/04 01:39:35;;;;;;;17.88;10.48;;;0.80;99.90;;;;;;4997590;28;20548;-81
2022/03/04 01:42:01;;;;;;;15.63;9.98;;;0.90;99.90;;;;;;4983071;28;20109;-81
2022/03/04 01:44:27;;;;;;;18.63;10.80;;;0.80;99.90;;;;;;5002518;28;20042;-81
2022/03/04 01:46:52;;;;;;;18.80;10.27;;;0.80;99.90;;;;;;5001427;28;20521;-81
2022/03/04 01:49:18;;;;;;;17.33;10.75;;;0.80;99.90;;;;;;4985978;28;20054;-81
2022/03/04 01:51:44;;;;;;;17.83;10.63;;;1.90;99.90;;;;;;4987422;28;20053;-80
2022/03/04 01:54:10;;;;;;;17.95;11.18;;;2.40;99.90;;;;;;4985168;28;20160;-81
2022/03/04 01:56:36;;;;;;;17.02;11.18;;;0.30;99.90;;;;;;5002353;28;20056;-81
2022/03/04 01:59:02;;;;;;;21.70;11.32;;;0.50;99.90;;;;;;4997361;28;20050;-82
2022/03/04 02:01:28;;;;;;;18.83;11.57;;;0.60;99.90;;;;;;4971583;28;20136;-81
2022/03/04 02:03:53;;;;;;;18.08;11.27;;;0.60;99.90;;;;;;4985295;28;20093;-80
2022/03/04 02:06:19;;;;;;;17.02;11.15;;;0.50;99.90;;;;;;5001862;28;20124;-80
2022/03/04 02:08:45;;;;;;;22.42;12.10;;;0.40;99.90;;;;;;4984855;28;20451;-80
2022/03/04 02:11:10;;;;;;;16.63;10.57;;;0.60;99.90;;;;;;4999014;28;20499;-80
2022/03/04 02:13:38;;;;;;;18.23;10.13;;;0.50;99.90;;;;;;5001194;28;20058;-81
2022/03/04 02:16:34;;;;;;;22.70;12.25;;;0.50;99.90;;;;;;5001015;28;20381;-82
2022/03/04 02:19:01;;;;;;;20.10;11.68;;;0.50;99.90;;;;;;4980982;28;20437;-81
2022/03/04 02:21:27;;;;;;;21.05;11.30;;;0.40;99.90;;;;;;4985055;28;20216;-81
2022/03/04 02:23:53;;;;;;;19.05;11.23;;;0.50;99.90;;;;;;5000215;28;20486;-81
2022/03/04 02:26:19;;;;;;;20.48;11.40;;;2.70;99.90;;;;;;4998622;28;20451;-81
2022/03/04 02:28:45;;;;;;;20.02;11.65;;;0.50;99.90;;;;;;4983156;28;20045;-80
2022/03/04 02:31:15;;;;;;;22.25;11.75;;;1.50;99.90;;;;;;4985283;28;20038;-82
2022/03/04 02:33:42;;;;;;;22.27;12.20;;;0.00;99.90;;;;;;4984997;28;20048;-82
2022/03/04 02:36:08;;;;;;;24.17;12.73;;;0.00;99.90;;;;;;4984223;28;20074;-82
2022/03/04 02:38:33;;;;;;;22.70;12.88;;;2.40;99.90;;;;;;4992154;28;20175;-81
2022/03/04 02:40:59;;;;;;;22.33;12.70;;;1.20;99.90;;;;;;4996507;28;20466;-82
2022/03/04 02:43:25;;;;;;;20.92;13.23;;;0.00;99.90;;;;;;4985971;28;20481;-82
2022/03/04 02:45:51;;;;;;;25.55;13.38;;;-0.50;99.90;;;;;;5000917;28;20038;-80
2022/03/04 02:48:17;;;;;;;22.17;12.30;;;0.20;99.90;;;;;;4986131;28;20045;-81
2022/03/04 02:50:42;;;;;;;20.98;12.77;;;0.00;99.90;;;;;;4976170;28;20509;-81
2022/03/04 02:53:09;;;;;;;25.15;12.57;;;-0.50;99.90;;;;;;4997564;28;20073;-80
2022/03/04 02:55:35;;;;;;;22.27;13.05;;;1.90;99.90;;;;;;4991760;28;20387;-82
2022/03/04 02:58:00;;;;;;;20.80;12.93;;;-0.80;99.90;;;;;;5000117;28;20543;-80
2022/03/04 03:00:26;;;;;;;20.95;12.55;;;0.20;99.90;;;;;;4987430;28;20490;-82
2022/03/04 03:02:52;;;;;;;21.42;13.32;;;0.10;99.90;;;;;;4983946;28;20560;-81
2022/03/04 03:05:17;;;;;;;23.40;13.55;;;0.10;99.90;;;;;;4984653;28;20093;-80
2022/03/04 03:07:43;;;;;;;21.92;12.45;;;0.00;99.90;;;;;;4984442;28;20053;-81
2022/03/04 03:10:10;;;;;;;24.13;14.80;;;0.10;99.90;;;;;;4981389;28;20041;-80
2022/03/04 03:12:41;;;;;;;25.20;13.52;;;2.50;99.90;;;;;;5000235;28;20050;-81
2022/03/04 03:15:07;;;;;;;22.63;13.00;;;0.10;99.90;;;;;;4984354;28;20057;-80
2022/03/04 03:17:33;;;;;;;26.48;14.93;;;0.10;99.90;;;;;;4999985;28;20053;-81
2022/03/04 03:20:00;;;;;;;24.02;14.23;;;0.00;99.90;;;;;;4998372;28;20405;-80
2022/03/04 03:22:26;;;;;;;24.63;13.13;;;0.40;99.90;;;;;;4983577;28;20053;-80
2022/03/04 03:24:54;;;;;;;19.40;13.23;;;0.00;99.90;;;;;;4999338;28;20054;-80
2022/03/04 03:27:20;;;;;;;24.02;13.10;;;-0.40;99.90;;;;;;4995033;28;20058;-81
2022/03/04 03:29:48;;;;;;;23.33;13.32;;;1.10;99.90;;;;;;4984060;28;20052;-82
2022/03/04 03:32:15;;;;;;;26.17;13.73;;;0.10;99.90;;;;;;4983896;28;20053;-80
2022/03/04 03:34:41;;;;;;;24.15;14.25;;;2.20;99.90;;;;;;4988095;28;20050;-81
2022/03/04 03:37:09;;;;;;;21.77;12.82;;;-0.10;99.90;;;;;;4998555;28;20137;-81
2022/03/04 03:39:36;;;;;;;24.98;13.82;;;0.80;99.90;;;;;;4982986;28;20049;-82
2022/03/04 03:42:02;;;;;;;28.10;13.98;;;-0.20;99.90;;;;;;4983386;28;20042;-81
2022/03/04 03:44:27;;;;;;;24.55;13.55;;;-0.20;99.90;;;;;;4978048;28;20045;-80
2022/03/04 03:46:56;;;;;;;25.10;14.23;;;-0.20;99.90;;;;;;4998959;28;20049;-80
2022/03/04 03:49:22;;;;;;;25.25;13.93;;;1.80;99.90;;;;;;4979193;28;20052;-81
2022/03/04 03:51:48;;;;;;;22.60;13.73;;;-0.30;99.90;;;;;;4987407;28;20046;-80
2022/03/04 03:54:14;;;;;;;23.77;13.75;;;-0.30;99.90;;;;;;4982930;28;20042;-81
2022/03/04 03:56:39;;;;;;;22.20;13.40;;;-0.30;99.90;;;;;;5000447;28;20103;-81
2022/03/04 03:59:05;;;;;;;24.33;13.93;;;-0.30;99.90;;;;;;4991558;28;20490;-81
2022/03/04 04:01:30;;;;;;;25.20;13.93;;;-0.30;99.90;;;;;;4980999;28;20042;-80
2022/03/04 04:03:56;;;;;;;26.90;14.85;;;-0.70;99.90;;;;;;4997124;28;20045;-81
2022/03/04 04:06:21;;;;;;;29.25;14.57;;;1.50;99.90;;;;;;4997028;28;20052;-81
2022/03/04 04:08:47;;;;;;;23.77;13.73;;;-0.50;99.90;;;;;;4981554;28;20052;-81
2022/03/04 04:11:13;;;;;;;26.92;14.07;;;1.60;99.90;;;;;;4980989;28;20037;-80
2022/03/04 04:13:38;;;;;;;26.85;14.73;;;-0.50;99.90;;;;;;5003747;28;20065;-80
2022/03/04 04:16:04;;;;;;;24.83;14.30;;;1.90;99.90;;;;;;4977919;28;20092;-80
2022/03/04 04:18:30;;;;;;;25.85;13.75;;;-0.60;99.90;;;;;;5000084;28;20485;-80
2022/03/04 04:20:55;;;;;;;29.42;14.85;;;-0.60;99.90;;;;;;4975642;28;20045;-80
2022/03/04 04:23:22;;;;;;;25.40;15.38;;;-0.90;99.90;;;;;;4983138;28;20040;-81
2022/03/04 04:25:48;;;;;;;25.42;15.00;;;-0.20;99.90;;;;;;4982937;28;20049;-80
2022/03/04 04:28:13;;;;;;;26.15;14.52;;;-0.30;99.90;;;;;;4982730;28;20493;-81
2022/03/04 04:30:39;;;;;;;29.60;15.70;;;-0.50;99.90;;;;;;4995778;28;20069;-81
2022/03/04 04:33:05;;;;;;;26.25;15.20;;;-0.80;99.90;;;;;;4982932;28;20104;-81
2022/03/04 04:35:30;;;;;;;25.35;14.95;;;1.30;99.90;;;;;;4999277;28;20501;-81
2022/03/04 04:37:56;;;;;;;28.05;15.27;;;-0.80;99.90;;;;;;4982862;28;20037;-81
2022/03/04 04:40:21;;;;;;;23.73;14.30;;;-0.70;99.90;;;;;;4982604;28;20038;-81
2022/03/04 04:42:47;;;;;;;23.70;13.90;;;-0.70;99.90;;;;;;4981952;28;20049;-80
2022/03/04 04:45:13;;;;;;;26.30;14.77;;;-1.20;99.90;;;;;;4979154;28;20069;-80
2022/03/04 04:47:39;;;;;;;27.60;14.63;;;-0.50;99.90;;;;;;5005823;28;20054;-81
2022/03/04 04:50:05;;;;;;;28.77;16.00;;;-0.90;99.90;;;;;;4972301;28;20049;-80
2022/03/04 04:52:31;;;;;;;29.00;14.68;;;-0.90;99.90;;;;;;4998491;28;20042;-80
2022/03/04 04:54:57;;;;;;;28.67;14.95;;;-0.80;99.90;;;;;;4998800;28;20049;-81
2022/03/04 04:57:22;;;;;;;27.63;15.05;;;-0.20;99.90;;;;;;4982425;28;20038;-82
2022/03/04 04:59:48;;;;;;;30.45;16.23;;;-1.30;99.90;;;;;;4993563;28;20045;-81
2022/03/04 05:02:14;;;;;;;24.65;14.38;;;-0.80;99.90;;;;;;4985073;28;20482;-80
2022/03/04 05:04:39;;;;;;;27.42;15.93;;;-1.60;99.90;;;;;;4983525;28;20653;-81
2022/03/04 05:07:05;;;;;;;30.95;15.20;;;-1.00;99.90;;;;;;4998944;28;20408;-81
2022/03/04 05:09:31;;;;;;;29.63;16.23;;;-1.00;99.90;;;;;;4999292;28;20042;-81
2022/03/04 05:11:56;;;;;;;27.88;16.13;;;-0.50;99.90;;;;;;4974059;28;20056;-80
2022/03/04 05:14:22;;;;;;;25.38;15.35;;;-1.50;99.90;;;;;;4997748;28;20466;-81
2022/03/04 05:16:48;;;;;;;28.58;16.70;;;-2.00;99.90;;;;;;4998662;28;20428;-79
2022/03/04 05:19:13;;;;;;;30.95;17.35;;;-1.10;99.90;;;;;;4998479;28;20125;-81
2022/03/04 05:21:39;;;;;;;30.67;17.15;;;-1.30;99.90;;;;;;4991036;28;20042;-81
2022/03/04 05:24:06;;;;;;;29.25;16.60;;;-0.30;99.90;;;;;;4981582;28;20050;-81
2022/03/04 05:26:42;;;;;;;33.42;17.50;;;-1.20;99.90;;;;;;4997669;28;20128;-80
2022/03/04 05:29:09;;;;;;;30.80;16.77;;;-0.40;99.90;;;;;;4976539;28;20085;-81
2022/03/04 05:31:39;;;;;;;32.25;17.98;;;-1.20;99.90;;;;;;5006058;28;20137;-81
2022/03/04 05:34:06;;;;;;;36.40;17.20;;;-1.10;99.90;;;;;;4976543;28;20481;-81
2022/03/04 05:36:32;;;;;;;32.42;17.33;;;-1.20;99.90;;;;;;4998985;28;20140;-81
2022/03/04 05:38:59;;;;;;;31.17;17.63;;;-1.30;99.90;;;;;;4995417;28;20488;-81
2022/03/04 05:41:24;;;;;;;28.75;16.63;;;-1.40;99.90;;;;;;5001295;28;20049;-81
2022/03/04 05:43:51;;;;;;;31.13;16.70;;;-1.20;99.90;;;;;;4982218;28;20038;-81
2022/03/04 05:46:16;;;;;;;32.92;18.25;;;-1.30;99.90;;;;;;4978166;28;20108;-80
2022/03/04 05:48:43;;;;;;;31.95;17.23;;;-2.10;99.90;;;;;;4988935;28;20042;-80
2022/03/04 05:51:09;;;;;;;33.25;18.08;;;-0.50;99.90;;;;;;5001735;28;20126;-81
2022/03/04 05:53:35;;;;;;;33.63;18.35;;;-0.30;99.90;;;;;;5004562;28;20037;-81
2022/03/04 05:56:02;;;;;;;30.83;18.02;;;-2.40;99.90;;;;;;4975786;28;20413;-79
2022/03/04 05:58:28;;;;;;;34.42;18.92;;;-1.30;99.90;;;;;;4974682;28;20125;-80
2022/03/04 06:00:53;;;;;;;30.23;18.08;;;-1.20;99.90;;;;;;5001788;28;20117;-80
2022/03/04 06:03:19;;;;;;;35.67;19.33;;;-1.20;99.90;;;;;;4974095;28;20038;-79
2022/03/04 06:05:45;;;;;;;36.72;19.67;;;-1.20;99.90;;;;;;4983377;28;20038;-78
2022/03/04 06:08:11;;;;;;;37.33;19.58;;;-1.20;99.90;;;;;;4985302;28;20042;-78
2022/03/04 06:10:36;;;;;;;34.53;18.13;;;-1.20;99.90;;;;;;5000223;28;20097;-80
2022/03/04 06:13:06;;;;;;;37.35;18.00;;;-1.20;99.90;;;;;;4999502;28;20121;-81
2022/03/04 06:15:33;;;;;;;32.47;18.17;;;-1.10;99.90;;;;;;4998471;28;20060;-81
2022/03/04 06:17:58;;;;;;;32.95;19.10;;;-0.70;99.90;;;;;;4979055;28;20073;-81
2022/03/04 06:20:24;;;;;;;39.47;21.10;;;-1.10;99.90;;;;;;4985411;28;20449;-80
2022/03/04 06:22:50;;;;;;;29.58;17.67;;;-1.10;99.90;;;;;;4977253;28;20108;-81
2022/03/04 06:25:15;;;;;;;38.28;19.83;;;-1.30;99.90;;;;;;5002121;28;20489;-81
2022/03/04 06:28:11;;;;;;;35.22;18.85;;;-1.10;99.90;;;;;;4984527;28;20084;-81
2022/03/04 06:30:36;;;;;;;;;;;-1.10;99.90;;;;;;4968042;28;20053;-81
2022/03/04 06:35:48;;;;;;;30.52;17.45;;;-2.30;99.90;;;;;;4997493;28;20129;-82
2022/03/04 06:38:17;;;;;;;33.40;18.90;;;-1.30;99.90;;;;;;4980817;28;20052;-81
2022/03/04 06:40:45;;;;;;;30.88;18.50;;;-1.10;99.90;;;;;;4982539;28;20112;-81
2022/03/04 06:43:11;;;;;;;31.42;18.58;;;-1.20;99.90;;;;;;4995559;28;20493;-80
2022/03/04 06:45:39;;;;;;;31.95;18.52;;;-1.20;99.90;;;;;;4984128;28;20136;-77
2022/03/04 06:48:05;;;;;;;36.85;18.45;;;-0.50;99.90;;;;;;4999033;28;20541;-79
2022/03/04 06:50:31;;;;;;;32.83;18.52;;;0.70;99.90;;;;;;4999744;28;20122;-79
2022/03/04 06:52:56;;;;;;;35.55;18.77;;;-1.20;99.90;;;;;;5002252;28;20441;-80
2022/03/04 06:55:22;;;;;;;35.03;19.40;;;-0.90;99.90;;;;;;5001753;28;20477;-80
2022/03/04 06:57:51;;;;;;;31.10;18.50;;;-0.50;99.90;;;;;;4992000;28;20045;-81
2022/03/04 07:00:18;;;;;;;33.47;17.83;;;-1.10;99.90;;;;;;5001650;28;20125;-79
2022/03/04 07:02:44;;;;;;;30.42;18.17;;;-0.50;99.90;;;;;;4982802;28;20038;-79
2022/03/04 07:05:10;;;;;;;36.35;19.13;;;-1.10;99.90;;;;;;4995296;28;20045;-80
2022/03/04 07:07:36;;;;;;;34.50;19.88;;;-0.10;99.90;;;;;;5001690;28;20061;-81
2022/03/04 07:10:04;;;;;;;32.42;18.63;;;-1.10;99.90;;;;;;4977061;28;20056;-81
2022/03/04 07:12:30;;;;;;;37.58;17.85;;;-1.10;99.90;;;;;;4984497;28;20129;-80
2022/03/04 07:14:56;;;;;;;31.08;18.20;;;-0.20;99.90;;;;;;4976621;28;20125;-81
2022/03/04 07:17:21;;;;;;;29.58;17.67;;;-0.90;99.90;;;;;;4993311;28;20042;-80
2022/03/04 07:19:47;;;;;;;35.03;19.85;;;-0.30;99.90;;;;;;4999647;28;20057;-80
2022/03/04 07:22:13;;;;;;;29.00;18.15;;;-0.20;99.90;;;;;;5000402;28;20088;-80
2022/03/04 07:24:38;;;;;;;27.20;16.85;;;-0.10;99.90;;;;;;4999336;28;20053;-80
2022/03/04 07:27:04;;;;;;;30.88;17.92;;;-1.00;99.90;;;;;;4993644;28;20056;-81
2022/03/04 07:29:29;;;;;;;31.27;17.50;;;-0.90;99.90;;;;;;5001359;28;20120;-80
2022/03/04 07:31:56;;;;;;;27.52;17.33;;;-0.20;99.90;;;;;;4979858;28;20472;-80
2022/03/04 07:34:23;;;;;;;28.83;17.50;;;-1.00;99.90;;;;;;4992888;28;20092;-81
2022/03/04 07:36:49;;;;;;;31.83;18.80;;;-0.50;99.90;;;;;;4993131;28;20038;-78
2022/03/04 07:39:15;;;;;;;29.50;17.70;;;-0.90;99.90;;;;;;4983308;28;20038;-81
2022/03/04 07:41:41;;;;;;;27.10;16.48;;;-0.90;99.90;;;;;;4973818;28;20490;-81
2022/03/04 07:44:07;;;;;;;27.02;17.15;;;-0.90;99.90;;;;;;4993783;28;20053;-79
2022/03/04 07:46:33;;;;;;;30.60;19.33;;;1.00;99.90;;;;;;4985391;28;20128;-81
2022/03/04 07:48:59;;;;;;;33.72;18.13;;;-0.90;99.90;;;;;;4977360;28;20449;-80
2022/03/04 07:51:25;;;;;;;25.70;17.08;;;-1.00;99.90;;;;;;4997869;28;20039;-81
2022/03/04 07:53:51;;;;;;;27.00;17.45;;;-1.00;99.90;;;;;;4997764;28;20046;-81
2022/03/04 07:56:16;;;;;;;30.35;18.30;;;-0.90;99.90;;;;;;5015426;28;20045;-81
2022/03/04 07:58:42;;;;;;;27.50;17.73;;;-1.00;99.90;;;;;;5001812;28;20520;-80
2022/03/04 08:01:08;;;;;;;27.88;16.58;;;-0.80;99.90;;;;;;4985129;28;20073;-80
2022/03/04 08:03:35;;;;;;;30.25;18.50;;;-0.10;99.90;;;;;;4999285;28;20054;-81
2022/03/04 08:06:01;;;;;;;26.95;17.27;;;1.20;99.90;;;;;;4958001;28;20419;-81
2022/03/04 08:08:27;;;;;;;30.40;18.08;;;-0.90;99.90;;;;;;4982386;28;20045;-86
2022/03/04 08:10:56;;;;;;;28.15;17.65;;;-0.70;99.90;;;;;;5001759;28;20046;-81
2022/03/04 08:13:22;;;;;;;26.63;16.70;;;1.20;99.90;;;;;;5000735;28;20038;-81
2022/03/04 08:15:47;;;;;;;27.58;17.38;;;-0.40;99.90;;;;;;4983718;28;20046;-81
2022/03/04 08:18:13;;;;;;;29.25;17.52;;;-0.60;99.90;;;;;;5000098;28;20042;-81
2022/03/04 08:20:39;;;;;;;28.42;17.80;;;-0.50;99.90;;;;;;4645219;28;9999828;-81
2022/03/04 08:23:05;;;;;;;27.95;17.13;;;-0.10;99.90;;;;;;4987913;28;20052;-81
2022/03/04 08:25:30;;;;;;;30.45;19.15;;;-0.50;99.90;;;;;;4979209;28;20421;-81
2022/03/04 08:27:56;;;;;;;25.17;16.08;;;-0.30;99.90;;;;;;4998112;28;20057;-80
2022/03/04 08:30:23;;;;;;;27.75;17.30;;;-0.30;99.90;;;;;;4999628;28;20080;-81
2022/03/04 08:32:51;;;;;;;33.50;17.48;;;1.60;99.90;;;;;;4980146;28;20470;-81
2022/03/04 08:35:17;;;;;;;31.35;16.63;;;-0.40;99.90;;;;;;4971357;28;20080;-81
2022/03/04 08:37:43;;;;;;;30.30;18.13;;;0.00;99.90;;;;;;4998874;28;20053;-81
2022/03/04 08:40:10;;;;;;;29.20;17.48;;;-1.50;99.90;;;;;;5006464;28;20040;-82
2022/03/04 08:42:37;;;;;;;28.60;16.95;;;-0.50;99.90;;;;;;4996556;28;20100;-81
2022/03/04 08:45:04;;;;;;;27.55;18.42;;;-0.50;99.90;;;;;;4977051;28;20041;-81
2022/03/04 08:47:29;;;;;;;30.45;17.48;;;-1.70;99.90;;;;;;4992550;28;20046;-82
2022/03/04 08:49:55;;;;;;;27.88;17.85;;;-0.60;99.90;;;;;;4994399;28;20057;-80
2022/03/04 08:52:21;;;;;;;33.50;18.15;;;-0.50;99.90;;;;;;4991175;28;20045;-82
2022/03/04 08:54:47;;;;;;;31.85;17.65;;;0.10;99.90;;;;;;4996411;28;20081;-80
2022/03/04 08:57:13;;;;;;;29.65;17.75;;;-0.50;99.90;;;;;;4991962;28;20068;-82
2022/03/04 08:59:39;;;;;;;27.45;18.40;;;-0.70;99.90;;;;;;4999143;28;20078;-81
2022/03/04 09:02:06;;;;;;;31.00;17.88;;;-0.30;99.90;;;;;;4996094;28;20044;-79
2022/03/04 09:04:31;;;;;;;30.55;18.05;;;0.10;99.90;;;;;;4997592;28;20038;-81
2022/03/04 09:06:57;;;;;;;29.75;17.92;;;0.00;99.90;;;;;;5005918;28;20581;-80
2022/03/04 09:09:23;;;;;;;29.17;17.42;;;0.40;99.90;;;;;;4994004;28;20046;-81
2022/03/04 09:11:49;;;;;;;27.02;17.83;;;-0.10;99.90;;;;;;4982047;28;20045;-79
2022/03/04 09:14:16;;;;;;;31.30;17.90;;;-0.10;99.90;;;;;;4988123;28;20385;-79
2022/03/04 09:16:42;;;;;;;26.55;17.42;;;0.20;99.90;;;;;;4998634;28;20044;-80
2022/03/04 09:19:07;;;;;;;28.45;17.75;;;0.00;99.90;;;;;;5006682;28;20058;-81
2022/03/04 09:21:33;;;;;;;30.02;18.48;;;0.30;99.90;;;;;;5009927;28;20033;-80
2022/03/04 09:23:59;;;;;;;26.08;17.58;;;0.20;99.90;;;;;;4998879;28;20072;-80
2022/03/04 09:26:27;;;;;;;28.63;19.10;;;0.00;99.90;;;;;;4991079;28;20044;-81
2022/03/04 09:28:53;;;;;;;27.23;18.50;;;0.00;99.90;;;;;;5014654;28;20069;-79
2022/03/04 09:31:19;;;;;;;27.50;18.80;;;0.00;99.90;;;;;;4999871;28;20390;-81
2022/03/04 09:33:45;;;;;;;30.02;17.77;;;0.10;99.90;;;;;;4996688;28;20054;-80
2022/03/04 09:36:14;;;;;;;33.60;19.23;;;0.10;99.90;;;;;;5004464;28;20539;-80
2022/03/04 09:38:42;;;;;;;27.20;18.15;;;0.80;99.90;;;;;;5008365;28;20088;-79
2022/03/04 09:41:08;;;;;;;31.95;19.33;;;0.20;99.90;;;;;;4990306;28;20101;-79
2022/03/04 09:43:34;;;;;;;30.75;18.13;;;0.10;99.90;;;;;;5004875;28;20041;-80
2022/03/04 09:46:00;;;;;;;30.58;19.60;;;0.40;99.90;;;;;;4986858;28;20037;-80
2022/03/04 09:48:26;;;;;;;28.38;18.50;;;0.20;99.90;;;;;;5012819;28;20049;-82
2022/03/04 09:50:52;;;;;;;31.10;19.60;;;0.30;99.90;;;;;;5013101;28;20038;-81
2022/03/04 09:53:18;;;;;;;30.80;18.98;;;0.40;99.90;;;;;;4998512;28;20103;-80
2022/03/04 09:55:45;;;;;;;28.73;18.10;;;0.50;99.90;;;;;;5003971;28;20057;-80
2022/03/04 09:58:15;;;;;;;25.65;17.02;;;0.50;99.90;;;;;;5011321;28;20054;-80
2022/03/04 10:00:46;;;;;;;26.80;18.05;;;0.60;99.90;;;;;;5006606;28;20045;-78
2022/03/04 10:03:42;;;;;;;27.15;17.67;;;1.10;99.90;;;;;;4992894;28;20489;-80
2022/03/04 10:06:07;;;;;;;25.10;17.13;;;0.70;99.90;;;;;;5003168;28;20088;-81
2022/03/04 10:08:38;;;;;;;26.00;16.13;;;0.80;99.90;;;;;;5001337;28;20074;-79
2022/03/04 10:11:03;;;;;;;22.15;15.40;;;0.90;99.90;;;;;;4985614;28;20775;-79
2022/03/04 10:13:47;;;;;;;22.88;14.35;;;1.00;99.90;;;;;;4981060;28;20493;-80
2022/03/04 10:16:41;;;;;;;24.15;16.17;;;1.10;99.90;;;;;;5009730;28;20057;-80
2022/03/04 10:19:13;;;;;;;22.45;15.02;;;1.30;99.90;;;;;;4999785;28;20049;-78
2022/03/04 10:21:55;;;;;;;23.00;13.90;;;1.30;99.90;;;;;;4986728;28;20046;-78
2022/03/04 10:24:32;;;;;;;22.95;15.07;;;1.40;99.90;;;;;;4998690;28;20104;-81
2022/03/04 10:27:09;;;;;;;23.48;15.77;;;1.50;99.90;;;;;;4995698;28;20049;-80
2022/03/04 10:29:37;;;;;;;22.25;15.10;;;1.60;99.90;;;;;;5002340;28;20120;-81
2022/03/04 10:32:05;;;;;;;23.17;15.15;;;1.60;99.90;;;;;;5000653;28;20034;-80
2022/03/04 10:34:47;;;;;;;19.55;14.40;;;1.70;99.90;;;;;;5005289;28;20061;-80
2022/03/04 10:37:14;;;;;;;18.02;13.15;;;1.90;99.90;;;;;;5001667;28;20108;-80
2022/03/04 10:40:04;;;;;;;26.08;13.73;;;2.00;99.90;;;;;;4993613;28;20045;-78
2022/03/04 10:42:51;;;;;;;18.17;13.15;;;2.70;99.90;;;;;;4993318;28;20056;-81
2022/03/04 10:45:20;;;;;;;18.95;12.82;;;2.30;99.90;;;;;;4998900;28;20470;-81
2022/03/04 10:47:54;;;;;;;21.92;14.93;;;1.80;99.90;;;;;;4986051;28;20474;-80
2022/03/04 10:50:25;;;;;;;;;;;2.40;99.90;;;;;;4985463;28;20038;-80
2022/03/04 10:52:57;;;;;;;20.67;14.30;;;4.90;99.90;;;;;;4999660;28;19921;-80
2022/03/04 10:55:52;;;;;;;20.92;14.13;;;2.60;99.90;;;;;;4988352;28;20129;-80
2022/03/04 10:58:19;;;;;;;;;;;2.70;99.90;;;;;;4987658;28;20557;-79
2022/03/04 11:00:50;;;;;;;19.63;13.45;;;2.80;99.90;;;;;;5002853;28;19969;-80
2022/03/04 11:03:23;;;;;;;17.60;13.25;;;2.80;99.90;;;;;;5002543;28;20460;-80
2022/03/04 11:05:50;;;;;;;19.05;12.90;;;3.00;99.90;;;;;;5001665;28;20049;-80
2022/03/04 11:08:17;;;;;;;19.10;14.65;;;3.00;99.90;;;;;;5012607;28;20056;-79
2022/03/04 11:10:43;;;;;;;18.92;13.57;;;3.00;99.90;;;;;;5002249;28;20136;-80
2022/03/04 11:13:10;;;;;;;19.75;13.65;;;3.20;99.90;;;;;;5001580;28;20054;-81
2022/03/04 11:15:37;;;;;;;17.40;13.20;;;3.40;99.90;;;;;;5000417;28;20413;-81
2022/03/04 11:18:06;;;;;;;25.55;15.45;;;3.50;99.90;;;;;;4986116;28;20041;-79
2022/03/04 11:20:32;;;;;;;22.80;15.50;;;3.60;99.90;;;;;;4986199;28;20042;-80
2022/03/04 11:22:59;;;;;;;20.38;15.45;;;3.70;99.90;;;;;;5001490;28;20501;-79
2022/03/04 11:25:25;;;;;;;21.77;14.35;;;4.30;99.90;;;;;;4994965;28;20081;-79
2022/03/04 11:27:52;;;;;;;21.85;15.25;;;3.40;99.90;;;;;;4986431;28;20182;-78
2022/03/04 11:30:38;;;;;;;18.80;12.80;;;4.10;99.90;;;;;;5002321;28;20053;-79
2022/03/04 11:33:06;;;;;;;21.27;14.65;;;4.20;99.90;;;;;;4990098;28;20466;-80
2022/03/04 11:35:41;;;;;;;18.38;13.48;;;5.40;99.90;;;;;;5002479;28;20038;-79
2022/03/04 11:38:07;;;;;;;;;;;4.40;99.90;;;;;;4999102;28;20049;-80
2022/03/04 11:40:35;;;;;;;20.55;14.13;;;4.50;99.90;;;;;;5002543;28;19925;-81
2022/03/04 11:43:05;;;;;;;16.40;12.93;;;4.60;99.90;;;;;;5001579;28;20076;-81
2022/03/04 11:45:36;;;;;;;16.35;12.88;;;4.70;99.90;;;;;;4978042;28;20458;-81
2022/03/04 11:48:10;;;;;;;18.25;13.80;;;5.10;99.90;;;;;;5000183;28;20397;-81
2022/03/04 11:50:37;;;;;;;18.90;12.82;;;4.90;99.90;;;;;;4989422;28;20042;-81
2022/03/04 11:53:17;;;;;;;18.17;13.43;;;5.00;99.90;;;;;;4984139;28;20653;-78
2022/03/04 11:56:11;;;;;;;18.98;14.07;;;5.00;99.90;;;;;;4995082;28;20042;-82
2022/03/04 11:59:05;;;;;;;20.85;14.38;;;5.10;99.90;;;;;;4991505;28;20076;-82
2022/03/04 12:01:36;;;;;;;18.35;14.43;;;5.20;99.90;;;;;;4992134;28;20401;-82
2022/03/04 12:04:10;;;;;;;19.83;14.00;;;7.20;99.90;;;;;;4981839;28;20034;-82
2022/03/04 12:06:37;;;;;;;17.30;13.13;;;5.40;99.90;;;;;;5007260;28;20084;-81
2022/03/04 12:09:26;;;;;;;21.30;14.30;;;5.60;99.90;;;;;;4991589;28;20064;-83
2022/03/04 12:12:15;;;;;;;17.67;12.90;;;5.70;99.90;;;;;;4995824;28;20803;-83
2022/03/04 12:14:54;;;;;;;19.67;13.70;;;5.80;99.90;;;;;;4987032;28;20401;-82
2022/03/04 12:17:21;;;;;;;16.17;12.50;;;5.90;99.90;;;;;;4994245;28;20072;-80
2022/03/04 12:19:48;;;;;;;15.27;12.32;;;6.00;99.90;;;;;;4993997;28;20584;-82
2022/03/04 12:22:15;;;;;;;17.58;12.90;;;6.10;99.90;;;;;;4984880;28;20461;-82
2022/03/04 12:24:56;;;;;;;19.27;13.32;;;6.30;99.90;;;;;;5001131;28;20136;-83
2022/03/04 12:27:37;;;;;;;22.00;14.95;;;6.40;99.90;;;;;;5004734;28;20061;-84
2022/03/04 12:30:17;;;;;;;16.58;12.40;;;6.40;99.90;;;;;;4977438;28;20045;-82
2022/03/04 12:32:52;;;;;;;16.77;12.80;;;6.50;99.90;;;;;;4995674;28;20045;-83
2022/03/04 12:35:18;;;;;;;20.20;13.82;;;6.80;99.90;;;;;;5002457;28;20065;-83
2022/03/04 12:37:44;;;;;;;17.70;12.95;;;8.00;99.90;;;;;;4985381;28;20042;-83
2022/03/04 12:40:11;;;;;;;16.17;12.82;;;6.90;99.90;;;;;;5000379;28;20507;-84
2022/03/04 12:42:37;;;;;;;16.83;13.02;;;7.00;99.90;;;;;;4993514;28;20440;-83